Terminal Aerodrome Forecast
Issued by NWS Mt. Holly, NJ

Home | Current Version | Previous Version | Text Only | Print | Product List | Glossary On
Versions: 1 2 3 4 5 6 7 8 9 10 11 12 13 14 15 16 17 18 19 20 21 22
000
FTUS41 KPHI 202300
TAFACY
TAF
KACY 202337Z 2100/2124 12009KT P6SM SCT025 BKN080
      TEMPO 2100/2102 BKN025
     FM210200 13005KT 4SM BR BKN020
     FM210800 VRB02KT 3SM BR BKN008
      TEMPO 2108/2112 2SM -DZ BR OVC004
     FM211400 20005KT P6SM SCT020 BKN200
     FM211800 19007KT P6SM BKN250=

USA.gov is the U.S. government's official web portal to all federal, state and local government web resources and services.